Time;durP1;ratioP1;P1;durP2;ratioP2;P2;SDS_P1;SDS_P2;PMS_P1;PMS_P2;Temp;Humidity;BMP_temperature;BMP_pressure;BME280_temperature;BME280_humidity;BME280_pressure;Samples;Min_cycle;Max_cycle;Signal;HPM_P1;HPM_P2
2022/09/07 00:01:59;;;;;;;;;;;18.00;99.90;;;;;;5142957;27;20297;-92
2022/09/07 00:04:25;;;;;;;;;;;18.00;99.90;;;;;;5150588;27;19974;-90
2022/09/07 00:06:50;;;;;;;;;;;18.00;99.90;;;;;;5148693;27;19923;-89
2022/09/07 00:09:16;;;;;;;;;;;18.00;99.90;;;;;;5141594;27;20029;-91
2022/09/07 00:11:41;;;;;;;;;;;18.00;99.90;;;;;;5160027;27;19922;-91
2022/09/07 00:14:07;;;;;;;;;;;18.10;99.90;;;;;;5159142;27;19923;-91
2022/09/07 00:16:33;;;;;;;;;;;18.10;99.90;;;;;;5178425;27;20382;-92
2022/09/07 00:18:59;;;;;;;;;;;17.90;99.90;;;;;;5124620;27;20025;-91
2022/09/07 00:21:25;;;;;;;;;;;17.90;99.90;;;;;;5141440;27;19923;-92
2022/09/07 00:23:50;;;;;;;;;;;17.90;99.90;;;;;;5159460;27;19997;-92
2022/09/07 00:26:17;;;;;;;;;;;17.90;99.90;;;;;;5159416;27;19926;-92
2022/09/07 00:28:43;;;;;;;;;;;17.80;99.90;;;;;;5166392;27;19981;-91
2022/09/07 00:31:12;;;;;;;;;;;17.80;99.90;;;;;;5177224;27;19952;-91
2022/09/07 00:33:38;;;;;;;;;;;17.70;99.90;;;;;;5169733;27;19922;-91
2022/09/07 00:36:04;;;;;;;;;;;17.80;99.90;;;;;;5161562;27;19979;-91
2022/09/07 00:38:29;;;;;;;;;;;17.80;99.90;;;;;;5155932;27;19923;-89
2022/09/07 00:40:55;;;;;;;;;;;17.80;99.90;;;;;;5147401;27;19923;-90
2022/09/07 00:43:31;;;;;;;;;;;17.80;99.90;;;;;;5160126;27;20097;-92
2022/09/07 00:45:56;;;;;;;;;;;17.70;99.90;;;;;;5125390;27;19934;-91
2022/09/07 00:48:22;;;;;;;;;;;17.80;99.90;;;;;;5159708;27;19926;-92
2022/09/07 00:50:49;;;;;;;;;;;17.80;99.90;;;;;;5121706;27;19927;-92
2022/09/07 00:53:19;;;;;;;;;;;17.70;99.90;;;;;;5138963;27;19926;-92
2022/09/07 00:55:45;;;;;;;;;;;17.70;99.90;;;;;;5139309;27;19927;-92
2022/09/07 00:58:10;;;;;;;;;;;17.70;99.90;;;;;;5138214;27;19923;-93
2022/09/07 01:00:36;;;;;;;;;;;17.70;99.90;;;;;;5137685;27;19923;-93
2022/09/07 01:03:01;;;;;;;;;;;17.60;99.90;;;;;;5137917;27;19929;-93
2022/09/07 01:05:32;;;;;;;;;;;17.60;99.90;;;;;;5154437;27;19923;-92
2022/09/07 01:07:58;;;;;;;;;;;17.60;99.90;;;;;;5155889;27;19927;-91
2022/09/07 01:10:24;;;;;;;;;;;17.60;99.90;;;;;;5156005;27;19934;-90
2022/09/07 01:12:49;;;;;;;;;;;17.60;99.90;;;;;;5121221;27;19937;-90
2022/09/07 01:15:15;;;;;;;;;;;17.50;99.90;;;;;;5154422;27;19926;-92
2022/09/07 01:17:40;;;;;;;;;;;17.30;99.90;;;;;;5138166;27;19927;-89
2022/09/07 01:20:25;;;;;;;;;;;17.30;99.90;;;;;;5137886;27;20397;-90
2022/09/07 01:23:09;;;;;;;;;;;17.30;99.90;;;;;;5138139;27;20320;-91
2022/09/07 01:25:38;;;;;;;;;;;17.20;99.90;;;;;;5154925;27;20035;-89
2022/09/07 01:28:06;;;;;;;;;;;17.10;99.90;;;;;;5155982;27;19923;-87
2022/09/07 01:30:33;;;;;;;;;;;17.10;99.90;;;;;;5155573;27;19972;-88
2022/09/07 01:32:59;;;;;;;;;;;17.00;99.90;;;;;;5153045;27;19923;-86
2022/09/07 01:35:28;;;;;;;;;;;17.00;99.90;;;;;;5153978;27;19946;-86
2022/09/07 01:37:55;;;;;;;;;;;17.00;99.90;;;;;;5153782;27;19930;-85
2022/09/07 01:40:28;;;;;;;;;;;16.90;99.90;;;;;;5135506;27;20374;-86
2022/09/07 01:43:06;;;;;;;;;;;17.00;99.90;;;;;;5152709;27;19923;-84
2022/09/07 01:45:32;;;;;;;;;;;17.00;99.90;;;;;;5152617;27;20298;-83
2022/09/07 01:47:58;;;;;;;;;;;16.90;99.90;;;;;;5135493;27;20374;-83
2022/09/07 01:50:29;;;;;;;;;;;16.90;99.90;;;;;;5152414;27;19923;-84
2022/09/07 01:52:56;;;;;;;;;;;16.90;99.90;;;;;;5153234;27;19984;-85
2022/09/07 01:55:41;;;;;;;;;;;16.80;99.90;;;;;;5152839;27;20502;-85
2022/09/07 01:58:11;;;;;;;;;;;16.80;99.90;;;;;;5153168;27;20023;-85
2022/09/07 02:00:37;;;;;;;;;;;16.80;99.90;;;;;;5136075;27;19929;-85
2022/09/07 02:03:07;;;;;;;;;;;16.80;99.90;;;;;;5118997;27;20394;-86
2022/09/07 02:05:34;;;;;;;;;;;16.70;99.90;;;;;;5152327;27;19923;-84
2022/09/07 02:08:01;;;;;;;;;;;16.80;99.90;;;;;;5135633;27;19930;-84
2022/09/07 02:10:53;;;;;;;;;;;16.80;99.90;;;;;;5134708;27;20279;-85
2022/09/07 02:13:22;;;;;;;;;;;16.70;99.90;;;;;;5148027;27;20425;-86
2022/09/07 02:15:48;;;;;;;;;;;16.70;99.90;;;;;;5118475;27;20371;-85
2022/09/07 02:18:14;;;;;;;;;;;16.80;99.90;;;;;;5136033;27;19923;-85
2022/09/07 02:20:41;;;;;;;;;;;16.80;99.90;;;;;;5142269;27;20402;-84
2022/09/07 02:23:14;;;;;;;;;;;16.70;99.90;;;;;;5142827;27;20390;-84
2022/09/07 02:25:52;;;;;;;;;;;16.70;99.90;;;;;;5128397;27;19928;-84
2022/09/07 02:28:47;;;;;;;;;;;16.60;99.90;;;;;;5123028;27;19927;-83
2022/09/07 02:31:12;;;;;;;;;;;16.60;99.90;;;;;;5136920;27;20021;-84
2022/09/07 02:33:38;;;;;;;;;;;16.70;99.90;;;;;;5145857;27;19977;-86
2022/09/07 02:36:03;;;;;;;;;;;16.60;99.90;;;;;;5147935;27;19930;-85
2022/09/07 02:38:29;;;;;;;;;;;16.60;99.90;;;;;;5145040;27;20075;-83
2022/09/07 02:40:56;;;;;;;;;;;16.50;99.90;;;;;;5126093;27;19938;-85
2022/09/07 02:43:21;;;;;;;;;;;16.50;99.90;;;;;;5123275;27;19930;-87
2022/09/07 02:46:06;;;;;;;;;;;16.60;99.90;;;;;;5126607;27;20017;-85
2022/09/07 02:49:07;;;;;;;;;;;16.50;99.90;;;;;;5141818;27;19923;-86
2022/09/07 02:51:38;;;;;;;;;;;16.50;99.90;;;;;;5068576;28;19978;-86
2022/09/07 02:54:23;;;;;;;;;;;15.00;99.90;;;;;;5121586;28;19934;-86
2022/09/07 02:56:55;;;;;;;;;;;16.60;99.90;;;;;;5132177;28;19927;-87
2022/09/07 02:59:26;;;;;;;;;;;16.50;99.90;;;;;;5115181;28;19924;-85
2022/09/07 03:02:05;;;;;;;;;;;16.60;99.90;;;;;;5115194;28;19977;-86
2022/09/07 03:04:45;;;;;;;;;;;16.60;99.90;;;;;;5114593;28;19923;-85
2022/09/07 03:07:12;;;;;;;;;;;16.50;99.90;;;;;;5132075;28;19957;-85
2022/09/07 03:09:38;;;;;;;;;;;16.50;99.90;;;;;;5114309;28;19988;-86
2022/09/07 03:12:04;;;;;;;;;;;16.50;99.90;;;;;;5114737;28;19927;-87
2022/09/07 03:14:32;;;;;;;;;;;16.60;99.90;;;;;;5114346;28;20278;-86
2022/09/07 03:16:58;;;;;;;;;;;16.60;99.90;;;;;;5115211;28;19924;-85
2022/09/07 03:19:23;;;;;;;;;;;16.60;99.90;;;;;;5114778;28;19930;-86
2022/09/07 03:21:49;;;;;;;;;;;16.50;99.90;;;;;;5114325;28;20271;-88
2022/09/07 03:24:14;;;;;;;;;;;16.50;99.90;;;;;;5114817;28;20383;-86
2022/09/07 03:26:41;;;;;;;;;;;16.50;99.90;;;;;;5130716;28;19932;-87
2022/09/07 03:29:07;;;;;;;;;;;16.50;99.90;;;;;;5114314;28;19924;-86
2022/09/07 03:31:33;;;;;;;;;;;16.50;99.90;;;;;;5114095;28;19924;-86
2022/09/07 03:33:58;;;;;;;;;;;16.50;99.90;;;;;;5132392;28;20366;-86
2022/09/07 03:36:24;;;;;;;;;;;16.50;99.90;;;;;;5132825;28;19927;-86
2022/09/07 03:38:49;;;;;;;;;;;16.50;99.90;;;;;;5134573;28;20029;-87
2022/09/07 03:41:15;;;;;;;;;;;16.50;99.90;;;;;;5135456;28;19927;-86
2022/09/07 03:43:40;;;;;;;;;;;16.50;99.90;;;;;;5134107;28;20363;-87
2022/09/07 03:46:06;;;;;;;;;;;16.50;99.90;;;;;;5114832;28;19923;-84
2022/09/07 03:48:32;;;;;;;;;;;16.60;99.90;;;;;;5114229;28;19968;-89
2022/09/07 03:51:08;;;;;;;;;;;16.50;99.90;;;;;;5113537;28;20394;-86
2022/09/07 03:53:34;;;;;;;;;;;16.40;99.90;;;;;;5113655;28;20014;-86
2022/09/07 03:56:00;;;;;;;;;;;16.30;99.90;;;;;;5131173;27;19931;-86
2022/09/07 03:58:29;;;;;;;;;;;16.30;99.90;;;;;;5118096;27;20026;-87
2022/09/07 04:00:55;;;;;;;;;;;16.30;99.90;;;;;;5117422;27;20014;-87
2022/09/07 04:03:20;;;;;;;;;;;16.50;99.90;;;;;;5117669;27;20023;-87
2022/09/07 04:05:46;;;;;;;;;;;16.40;99.90;;;;;;5134570;27;19927;-86
2022/09/07 04:08:11;;;;;;;;;;;16.30;99.90;;;;;;5117990;27;19927;-87
2022/09/07 04:10:38;;;;;;;;;;;16.30;99.90;;;;;;5134063;27;19987;-87
2022/09/07 04:13:04;;;;;;;;;;;16.30;99.90;;;;;;5100896;27;20355;-86
2022/09/07 04:15:29;;;;;;;;;;;16.30;99.90;;;;;;5117636;27;19931;-87
2022/09/07 04:17:55;;;;;;;;;;;16.30;99.90;;;;;;5117331;27;20371;-86
2022/09/07 04:20:21;;;;;;;;;;;16.20;99.90;;;;;;5118175;27;19923;-86
2022/09/07 04:22:47;;;;;;;;;;;16.20;99.90;;;;;;5117610;27;19981;-86
2022/09/07 04:25:12;;;;;;;;;;;16.10;99.90;;;;;;5135014;27;19934;-85
2022/09/07 04:27:38;;;;;;;;;;;16.10;99.90;;;;;;5134736;27;19923;-91
2022/09/07 04:30:04;;;;;;;;;;;16.10;99.90;;;;;;5134474;27;19923;-86
2022/09/07 04:32:29;;;;;;;;;;;16.00;99.90;;;;;;5134757;27;19927;-86
2022/09/07 04:34:55;;;;;;;;;;;16.00;99.90;;;;;;5134183;27;19927;-87
2022/09/07 04:37:21;;;;;;;;;;;16.00;99.90;;;;;;5135234;27;19970;-88
2022/09/07 04:39:47;;;;;;;;;;;16.00;99.90;;;;;;5135031;27;19931;-86
2022/09/07 04:42:12;;;;;;;;;;;15.90;99.90;;;;;;5117102;27;19927;-87
2022/09/07 04:44:38;;;;;;;;;;;15.90;99.90;;;;;;5138349;27;20010;-87
2022/09/07 04:47:03;;;;;;;;;;;15.90;99.90;;;;;;5138989;27;19931;-86
2022/09/07 04:49:29;;;;;;;;;;;15.90;99.90;;;;;;5136829;27;20286;-88
2022/09/07 04:51:54;;;;;;;;;;;15.80;99.90;;;;;;5135141;27;19924;-86
2022/09/07 04:54:20;;;;;;;;;;;15.80;99.90;;;;;;5134735;27;19927;-87
2022/09/07 04:56:45;;;;;;;;;;;15.80;99.90;;;;;;5116434;27;20414;-87
2022/09/07 04:59:11;;;;;;;;;;;15.80;99.90;;;;;;5134432;27;19927;-86
2022/09/07 05:01:37;;;;;;;;;;;15.80;99.90;;;;;;5133903;27;20366;-86
2022/09/07 05:04:02;;;;;;;;;;;15.80;99.90;;;;;;5134061;27;20067;-87
2022/09/07 05:06:28;;;;;;;;;;;15.70;99.90;;;;;;5133962;27;19928;-87
2022/09/07 05:08:53;;;;;;;;;;;15.80;99.90;;;;;;5115953;27;19927;-87
2022/09/07 05:11:20;;;;;;;;;;;15.80;99.90;;;;;;5116990;27;19949;-86
2022/09/07 05:13:45;;;;;;;;;;;15.80;99.90;;;;;;5099104;27;20450;-91
2022/09/07 05:16:12;;;;;;;;;;;15.90;99.90;;;;;;5116828;27;20011;-86
2022/09/07 05:18:38;;;;;;;;;;;15.80;99.90;;;;;;5116604;27;19969;-86
2022/09/07 05:21:08;;;;;;;;;;;15.80;99.90;;;;;;5133759;27;19927;-85
2022/09/07 05:23:33;;;;;;;;;;;15.80;99.90;;;;;;5116477;27;19923;-86
2022/09/07 05:25:59;;;;;;;;;;;15.80;99.90;;;;;;5098791;27;19927;-87
2022/09/07 05:28:24;;;;;;;;;;;15.90;99.90;;;;;;5133606;27;19924;-88
2022/09/07 05:30:50;;;;;;;;;;;15.90;99.90;;;;;;5115711;27;19927;-87
2022/09/07 05:33:15;;;;;;;;;;;15.80;99.90;;;;;;5133664;27;19927;-86
2022/09/07 05:35:41;;;;;;;;;;;15.90;99.90;;;;;;5133257;27;19924;-87
2022/09/07 05:38:07;;;;;;;;;;;15.90;99.90;;;;;;5099193;27;19979;-86
2022/09/07 05:40:32;;;;;;;;;;;15.90;99.90;;;;;;5133439;27;19976;-87
2022/09/07 05:42:58;;;;;;;;;;;15.90;99.90;;;;;;5115346;27;19935;-87
2022/09/07 05:45:23;;;;;;;;;;;15.90;99.90;;;;;;5133009;27;19924;-87
2022/09/07 05:47:49;;;;;;;;;;;15.90;99.90;;;;;;5116414;27;19931;-87
2022/09/07 05:50:15;;;;;;;;;;;15.90;99.90;;;;;;5132703;27;19980;-87
2022/09/07 05:52:40;;;;;;;;;;;16.00;99.90;;;;;;5117883;27;20370;-86
2022/09/07 05:55:06;;;;;;;;;;;16.00;99.90;;;;;;5122170;27;19930;-87
2022/09/07 05:57:32;;;;;;;;;;;16.00;99.90;;;;;;5117588;27;19930;-87
2022/09/07 05:59:57;;;;;;;;;;;16.00;99.90;;;;;;5115318;27;19924;-87
2022/09/07 06:02:23;;;;;;;;;;;16.00;99.90;;;;;;5132932;27;19963;-86
2022/09/07 06:04:49;;;;;;;;;;;16.00;99.90;;;;;;5116644;27;19983;-87
2022/09/07 06:07:15;;;;;;;;;;;16.00;99.90;;;;;;5132139;27;19928;-87
2022/09/07 06:09:40;;;;;;;;;;;15.90;99.90;;;;;;5115921;27;19992;-88
2022/09/07 06:12:06;;;;;;;;;;;16.00;99.90;;;;;;5132358;27;19927;-88
2022/09/07 06:14:34;;;;;;;;;;;16.00;99.90;;;;;;5136089;27;19931;-87
2022/09/07 06:16:59;;;;;;;;;;;16.00;99.90;;;;;;5119973;27;19994;-88
2022/09/07 06:19:25;;;;;;;;;;;16.10;99.90;;;;;;5118936;27;19969;-88
2022/09/07 06:21:51;;;;;;;;;;;16.20;99.90;;;;;;5136417;27;19927;-88
2022/09/07 06:24:16;;;;;;;;;;;16.20;99.90;;;;;;5134358;27;20244;-88
2022/09/07 06:26:42;;;;;;;;;;;16.30;99.90;;;;;;5115294;27;19923;-89
2022/09/07 06:29:09;;;;;;;;;;;16.40;99.90;;;;;;5115126;27;20030;-88
2022/09/07 06:31:35;;;;;;;;;;;16.50;99.90;;;;;;5115497;27;19934;-88
2022/09/07 06:34:01;;;;;;;;;;;16.50;99.90;;;;;;5132197;27;19923;-88
2022/09/07 06:36:27;;;;;;;;;;;16.50;99.90;;;;;;5115294;27;20006;-87
2022/09/07 06:38:53;;;;;;;;;;;16.70;99.90;;;;;;5115163;27;19979;-88
2022/09/07 06:41:20;;;;;;;;;;;16.80;99.90;;;;;;5133112;27;20061;-89
2022/09/07 06:43:46;;;;;;;;;;;16.80;99.90;;;;;;5141716;27;19927;-91
2022/09/07 06:46:14;;;;;;;;;;;18.10;99.90;;;;;;5127735;28;20381;-91
2022/09/07 06:48:40;;;;;;;;;;;17.00;99.90;;;;;;5120116;27;20436;-90
2022/09/07 06:51:17;;;;;;;;;;;17.30;99.90;;;;;;5105018;28;19924;-90
2022/09/07 06:53:50;;;;;;;;;;;17.60;99.90;;;;;;5098582;28;19934;-91
2022/09/07 06:56:16;;;;;;;;;;;17.60;99.90;;;;;;5103963;28;19931;-90
2022/09/07 06:58:45;;;;;;;;;;;17.50;99.90;;;;;;5088049;28;20002;-92
2022/09/07 07:01:14;;;;;;;;;;;17.70;99.90;;;;;;5089214;28;19927;-91
2022/09/07 07:03:43;;;;;;;;;;;17.70;99.90;;;;;;5107406;28;19931;-91
2022/09/07 07:06:09;;;;;;;;;;;17.60;99.90;;;;;;5106232;28;19930;-91
2022/09/07 07:08:40;;;;;;;;;;;17.60;99.90;;;;;;5095246;28;19924;-92
2022/09/07 07:11:08;;;;;;;;;;;17.50;99.90;;;;;;5090328;28;20342;-91
2022/09/07 07:13:34;;;;;;;;;;;17.60;99.90;;;;;;5092731;28;20374;-94
2022/09/07 07:16:06;;;;;;;;;;;17.70;99.90;;;;;;5087272;28;19942;-94
2022/09/07 07:18:35;;;;;;;;;;;17.60;99.90;;;;;;5112690;28;20310;-94
2022/09/07 07:21:12;;;;;;;;;;;;;;;;;;;;;
2022/09/07 07:23:37;;;;;;;;;;;17.70;99.90;;;;;;5131415;28;20391;-92
2022/09/07 07:26:10;;;;;;;;;;;17.60;99.90;;;;;;5108215;28;19927;-92
2022/09/07 07:28:46;;;;;;;;;;;17.70;99.90;;;;;;5090486;28;20023;-93
2022/09/07 07:31:12;;;;;;;;;;;17.80;99.90;;;;;;5097761;27;19990;-91
2022/09/07 07:33:40;;;;;;;;;;;17.80;99.90;;;;;;5116738;27;19971;-90
2022/09/07 07:36:16;;;;;;;;;;;18.20;99.90;;;;;;5119474;27;19938;-91
2022/09/07 07:38:44;;;;;;;;;;;18.10;99.90;;;;;;5103671;28;20017;-87
2022/09/07 07:41:13;;;;;;;;;;;18.00;99.90;;;;;;5089758;28;19927;-93
2022/09/07 07:43:38;;;;;;;;;;;18.00;99.90;;;;;;5094309;28;19923;-91
2022/09/07 07:46:14;;;;;;;;;;;;;;;;;;;;;
2022/09/07 07:48:40;;;;;;;;;;;18.70;99.90;;;;;;5111078;28;20359;-91
2022/09/07 07:51:09;;;;;;;;;;;18.20;99.90;;;;;;5129311;27;19931;-92
2022/09/07 07:53:38;;;;;;;;;;;18.30;99.90;;;;;;5109146;27;19935;-92
2022/09/07 07:56:04;;;;;;;;;;;18.40;99.90;;;;;;5118448;27;20006;-92
2022/09/07 07:58:30;;;;;;;;;;;18.20;99.90;;;;;;5107033;27;20395;-92
2022/09/07 08:01:00;;;;;;;;;;;18.20;99.90;;;;;;5113277;27;19927;-92
2022/09/07 08:03:26;;;;;;;;;;;18.40;99.90;;;;;;5112222;27;19931;-91
2022/09/07 08:05:54;;;;;;;;;;;18.60;99.90;;;;;;5117491;27;19931;-93
2022/09/07 08:08:27;;;;;;;;;;;18.40;99.90;;;;;;5112165;27;20068;-91
2022/09/07 08:10:53;;;;;;;;;;;18.30;99.90;;;;;;5105220;27;20037;-89
2022/09/07 08:13:20;;;;;;;;;;;18.50;99.90;;;;;;5117501;27;19974;-89
2022/09/07 08:15:45;;;;;;;;;;;18.40;99.90;;;;;;5118006;27;19927;-89
2022/09/07 08:18:11;;;;;;;;;;;18.40;99.90;;;;;;5101775;27;19977;-90
2022/09/07 08:20:38;;;;;;;;;;;18.40;99.90;;;;;;5134882;27;19927;-88
2022/09/07 08:23:06;;;;;;;;;;;18.40;99.90;;;;;;5118348;27;20496;-91
2022/09/07 08:25:33;;;;;;;;;;;18.50;99.90;;;;;;5100888;27;19946;-84
2022/09/07 08:27:58;;;;;;;;;;;18.50;99.90;;;;;;5134535;27;19961;-89
2022/09/07 08:30:24;;;;;;;;;;;18.50;99.90;;;;;;5116788;27;19930;-88
2022/09/07 08:32:54;;;;;;;;;;;18.60;99.90;;;;;;5117987;27;19927;-89
2022/09/07 08:35:20;;;;;;;;;;;18.50;99.90;;;;;;5119111;27;20433;-90
2022/09/07 08:37:46;;;;;;;;;;;18.60;99.90;;;;;;5135016;27;19970;-88
2022/09/07 08:40:15;;;;;;;;;;;18.80;99.90;;;;;;5127015;27;20251;-90
2022/09/07 08:42:43;;;;;;;;;;;18.60;99.90;;;;;;5143356;27;19931;-93
2022/09/07 08:45:17;;;;;;;;;;;18.70;99.90;;;;;;5148993;27;19927;-92
2022/09/07 08:47:57;;;;;;;;;;;18.70;99.90;;;;;;5152668;27;19944;-91
2022/09/07 08:50:22;;;;;;;;;;;18.70;99.90;;;;;;5109912;27;19927;-91
2022/09/07 08:52:52;;;;;;;;;;;18.70;99.90;;;;;;5127572;27;20454;-90
2022/09/07 08:55:29;;;;;;;;;;;19.20;99.90;;;;;;5122755;27;20263;-91
2022/09/07 08:58:11;;;;;;;;;;;19.40;99.90;;;;;;5123802;27;19927;-94
2022/09/07 09:00:40;;;;;;;;;;;19.20;99.90;;;;;;5107013;27;19928;-92
2022/09/07 09:03:09;;;;;;;;;;;18.90;99.90;;;;;;5112685;27;19934;-92
2022/09/07 09:05:41;;;;;;;;;;;19.30;99.90;;;;;;5116457;27;19927;-92
2022/09/07 09:08:10;;;;;;;;;;;19.40;99.90;;;;;;5142377;27;20090;-92
2022/09/07 09:10:38;;;;;;;;;;;19.90;99.90;;;;;;5138362;27;19949;-91
2022/09/07 09:13:20;;;;;;;;;;;20.30;99.90;;;;;;5133910;27;19924;-91
2022/09/07 09:15:51;;;;;;;;;;;20.60;99.90;;;;;;5138833;27;20718;-90
2022/09/07 09:18:41;;;;;;;;;;;20.90;99.90;;;;;;5148882;27;20021;-91
2022/09/07 09:21:14;;;;;;;;;;;20.70;99.90;;;;;;5113313;27;19934;-91
2022/09/07 09:23:47;;;;;;;;;;;20.80;99.90;;;;;;5108536;27;19970;-94
2022/09/07 09:26:14;;;;;;;;;;;20.60;99.90;;;;;;5110541;27;19928;-94
2022/09/07 09:28:40;;;;;;;;;;;20.70;99.90;;;;;;5108355;27;19928;-90
2022/09/07 09:31:08;;;;;;;;;;;21.10;99.90;;;;;;5109258;27;19923;-91
2022/09/07 09:33:38;;;;;;;;;;;21.10;99.90;;;;;;5109802;27;19985;-93
2022/09/07 09:36:04;;;;;;;;;;;22.60;99.90;;;;;;5107432;27;19948;-93
2022/09/07 09:38:33;;;;;;;;;;;21.50;99.90;;;;;;5130248;27;19931;-92
2022/09/07 09:41:00;;;;;;;;;;;21.90;99.90;;;;;;5126514;27;19930;-90
2022/09/07 09:43:29;;;;;;;;;;;22.50;99.90;;;;;;5116938;27;19923;-91
2022/09/07 09:46:01;;;;;;;;;;;22.60;99.90;;;;;;5101895;27;19923;-93
2022/09/07 09:48:35;;;;;;;;;;;22.40;99.90;;;;;;5113249;27;19924;-90
2022/09/07 09:51:04;;;;;;;;;;;21.60;99.90;;;;;;5138464;27;19923;-92
2022/09/07 09:53:33;;;;;;;;;;;22.30;99.90;;;;;;5112907;27;19924;-89
2022/09/07 09:55:59;;;;;;;;;;;22.30;99.90;;;;;;5130745;27;19934;-88
2022/09/07 09:58:31;;;;;;;;;;;22.30;99.90;;;;;;5144497;27;19931;-88
2022/09/07 10:01:01;;;;;;;;;;;22.10;99.90;;;;;;5148639;27;19927;-88
2022/09/07 10:03:27;;;;;;;;;;;22.10;99.90;;;;;;5120609;27;19967;-89
2022/09/07 10:05:53;;;;;;;;;;;22.40;99.90;;;;;;5123411;27;20017;-88
2022/09/07 10:08:20;;;;;;;;;;;22.50;99.90;;;;;;5124288;27;19975;-88
2022/09/07 10:10:59;;;;;;;;;;;22.70;99.90;;;;;;5139355;27;20359;-89
2022/09/07 10:13:30;;;;;;;;;;;22.30;99.90;;;;;;5127768;27;19949;-92
2022/09/07 10:15:56;;;;;;;;;;;22.50;99.90;;;;;;5144407;27;19927;-89
2022/09/07 10:18:25;;;;;;;;;;;22.50;99.90;;;;;;5120361;27;19963;-90
2022/09/07 10:20:50;;;;;;;;;;;22.10;99.90;;;;;;5138217;27;19950;-91
2022/09/07 10:23:20;;;;;;;;;;;22.00;99.90;;;;;;5145034;27;19912;-92
2022/09/07 10:25:46;;;;;;;;;;;22.00;99.90;;;;;;5141688;27;19927;-89
2022/09/07 10:28:18;;;;;;;;;;;21.90;99.90;;;;;;5156259;27;19927;-89
2022/09/07 10:30:43;;;;;;;;;;;22.10;99.90;;;;;;5152506;27;19927;-90
2022/09/07 10:33:33;;;;;;;;;;;22.30;99.90;;;;;;5152299;27;19931;-89
2022/09/07 10:36:00;;;;;;;;;;;22.50;99.90;;;;;;5132939;27;20013;-90
2022/09/07 10:38:26;;;;;;;;;;;23.20;99.90;;;;;;5123877;27;19928;-90
2022/09/07 10:40:52;;;;;;;;;;;24.00;99.90;;;;;;5127174;27;19931;-90
2022/09/07 10:43:24;;;;;;;;;;;24.50;99.90;;;;;;5111600;27;20014;-90
2022/09/07 10:45:50;;;;;;;;;;;24.20;99.90;;;;;;5126717;27;19954;-90
2022/09/07 10:48:21;;;;;;;;;;;24.00;99.90;;;;;;5151956;27;20398;-90
2022/09/07 10:50:49;;;;;;;;;;;23.60;99.90;;;;;;5145933;27;19927;-89
2022/09/07 10:53:30;;;;;;;;;;;23.80;99.90;;;;;;5142873;27;20023;-89
2022/09/07 10:56:03;;;;;;;;;;;24.10;99.90;;;;;;5156027;27;20018;-88
2022/09/07 10:58:36;;;;;;;;;;;23.90;99.90;;;;;;5145798;28;19924;-87
2022/09/07 11:01:06;;;;;;;;;;;23.80;99.90;;;;;;5132133;28;20283;-86
2022/09/07 11:03:50;;;;;;;;;;;23.80;99.90;;;;;;5128364;27;20305;-88
2022/09/07 11:06:21;;;;;;;;;;;23.70;99.90;;;;;;5129794;27;19977;-86
2022/09/07 11:09:06;;;;;;;;;;;23.30;99.90;;;;;;5147843;27;19957;-87
2022/09/07 11:11:42;;;;;;;;;;;23.00;99.90;;;;;;5159375;27;19927;-88
2022/09/07 11:14:09;;;;;;;;;;;22.90;99.90;;;;;;5133400;27;19972;-88
2022/09/07 11:16:36;;;;;;;;;;;22.70;99.90;;;;;;5132603;27;19991;-88
2022/09/07 11:19:06;;;;;;;;;;;22.60;99.90;;;;;;5155661;27;19934;-87
2022/09/07 11:21:39;;;;;;;;;;;22.80;99.90;;;;;;5122341;27;20483;-87
2022/09/07 11:24:25;;;;;;;;;;;22.70;99.90;;;;;;5155851;27;20281;-87
2022/09/07 11:26:54;;;;;;;;;;;22.80;99.90;;;;;;5139028;27;20301;-87
2022/09/07 11:29:20;;;;;;;;;;;23.20;99.90;;;;;;5143388;27;19927;-87
2022/09/07 11:31:49;;;;;;;;;;;23.40;99.90;;;;;;5136008;27;20390;-89
2022/09/07 11:34:21;;;;;;;;;;;23.40;99.90;;;;;;5129632;27;19924;-87
2022/09/07 11:36:50;;;;;;;;;;;23.30;99.90;;;;;;5118142;27;20363;-87
2022/09/07 11:39:18;;;;;;;;;;;23.10;99.90;;;;;;5118459;27;19931;-88
2022/09/07 11:41:54;;;;;;;;;;;23.40;99.90;;;;;;5139933;27;19934;-86
2022/09/07 11:44:20;;;;;;;;;;;23.40;99.90;;;;;;5153283;27;19926;-87
2022/09/07 11:46:46;;;;;;;;;;;23.50;99.90;;;;;;5138712;27;20050;-86
2022/09/07 11:49:13;;;;;;;;;;;23.80;99.90;;;;;;5155046;27;20396;-86
2022/09/07 11:51:41;;;;;;;;;;;23.70;99.90;;;;;;5155132;27;19923;-86
2022/09/07 11:54:14;;;;;;;;;;;23.60;99.90;;;;;;5154705;27;19923;-86
2022/09/07 11:56:40;;;;;;;;;;;23.60;99.90;;;;;;5155041;27;20335;-86
2022/09/07 11:59:05;;;;;;;;;;;23.30;99.90;;;;;;5154515;27;20003;-86
2022/09/07 12:01:35;;;;;;;;;;;23.40;99.90;;;;;;5155575;27;20022;-86
2022/09/07 12:04:04;;;;;;;;;;;23.40;99.90;;;;;;5128578;27;20287;-86
2022/09/07 12:06:41;;;;;;;;;;;23.30;99.90;;;;;;5146203;27;19934;-86
2022/09/07 12:09:11;;;;;;;;;;;23.50;99.90;;;;;;5149086;27;19979;-88
2022/09/07 12:11:48;;;;;;;;;;;23.60;99.90;;;;;;5144815;27;19975;-88
2022/09/07 12:14:33;;;;;;;;;;;23.50;99.90;;;;;;5153379;27;20277;-88
2022/09/07 12:17:17;;;;;;;;;;;23.40;99.90;;;;;;5141300;27;20274;-89
2022/09/07 12:19:43;;;;;;;;;;;23.50;99.90;;;;;;5128133;27;19923;-92
2022/09/07 12:22:19;;;;;;;;;;;23.60;99.90;;;;;;5141430;27;20313;-91
2022/09/07 12:24:44;;;;;;;;;;;23.70;99.90;;;;;;5131073;27;19923;-91
2022/09/07 12:27:19;;;;;;;;;;;23.80;99.90;;;;;;5146717;27;20271;-92
2022/09/07 12:29:49;;;;;;;;;;;24.00;99.90;;;;;;5144604;27;19959;-91
2022/09/07 12:32:33;;;;;;;;;;;24.00;99.90;;;;;;5129369;27;19923;-89
2022/09/07 12:34:58;;;;;;;;;;;24.00;99.90;;;;;;5149073;27;19930;-89
2022/09/07 12:37:37;;;;;;;;;;;23.70;99.90;;;;;;5156348;27;20291;-88
2022/09/07 12:40:21;;;;;;;;;;;23.90;99.90;;;;;;5137396;27;20467;-88
2022/09/07 12:42:47;;;;;;;;;;;23.90;99.90;;;;;;5154829;27;19923;-89
2022/09/07 12:45:28;;;;;;;;;;;24.00;99.90;;;;;;5154536;27;19965;-89
2022/09/07 12:47:57;;;;;;;;;;;23.60;99.90;;;;;;5155997;27;20411;-89
2022/09/07 12:50:27;;;;;;;;;;;24.20;99.90;;;;;;5156056;27;19930;-89
2022/09/07 12:53:11;;;;;;;;;;;24.30;99.90;;;;;;5138317;27;19951;-89
2022/09/07 12:55:43;;;;;;;;;;;24.20;99.90;;;;;;5156793;27;19923;-89
2022/09/07 12:58:18;;;;;;;;;;;24.20;99.90;;;;;;5170806;27;19953;-88
2022/09/07 13:01:02;;;;;;;;;;;24.30;99.90;;;;;;5141534;27;19972;-89
2022/09/07 13:03:32;;;;;;;;;;;24.40;99.90;;;;;;5147102;27;19934;-88
2022/09/07 13:06:18;;;;;;;;;;;24.10;99.90;;;;;;5166469;27;19923;-89
2022/09/07 13:08:51;;;;;;;;;;;24.30;99.90;;;;;;5097088;27;20186;-89
2022/09/07 13:11:19;;;;;;;;;;;24.10;99.90;;;;;;5138428;27;19991;-89
2022/09/07 13:14:05;;;;;;;;;;;24.20;99.90;;;;;;5137550;27;19927;-88
2022/09/07 13:16:34;;;;;;;;;;;24.20;99.90;;;;;;5138186;27;19984;-89
2022/09/07 13:19:00;;;;;;;;;;;24.40;99.90;;;;;;5155771;27;19935;-89
2022/09/07 13:21:33;;;;;;;;;;;24.70;99.90;;;;;;5154840;27;20389;-89
2022/09/07 13:24:23;;;;;;;;;;;24.60;99.90;;;;;;5113679;27;19923;-89
2022/09/07 13:26:49;;;;;;;;;;;24.60;99.90;;;;;;5133824;27;20019;-89
2022/09/07 13:29:15;;;;;;;;;;;24.40;99.90;;;;;;5114237;27;19957;-89
2022/09/07 13:31:40;;;;;;;;;;;24.20;99.90;;;;;;5133590;27;20313;-88
2022/09/07 13:34:26;;;;;;;;;;;23.90;99.90;;;;;;5133625;27;19923;-88
2022/09/07 13:36:52;;;;;;;;;;;24.00;99.90;;;;;;5125245;27;20371;-89
2022/09/07 13:39:18;;;;;;;;;;;24.20;99.90;;;;;;5118878;27;19949;-88
2022/09/07 13:41:48;;;;;;;;;;;24.30;99.90;;;;;;5141245;27;19923;-90
2022/09/07 13:44:23;;;;;;;;;;;24.50;99.90;;;;;;5141546;27;19931;-88
2022/09/07 13:46:52;;;;;;;;;;;24.60;99.90;;;;;;5142381;27;19954;-89
2022/09/07 13:49:23;;;;;;;;;;;24.70;99.90;;;;;;5117444;27;20329;-86
2022/09/07 13:51:58;;;;;;;;;;;24.70;99.90;;;;;;5130089;27;19927;-90
2022/09/07 13:54:43;;;;;;;;;;;24.70;99.90;;;;;;5155446;27;20007;-89
2022/09/07 13:57:12;;;;;;;;;;;24.40;99.90;;;;;;5161899;27;19934;-89
2022/09/07 13:59:38;;;;;;;;;;;24.70;99.90;;;;;;5130475;27;19923;-90
2022/09/07 14:02:12;;;;;;;;;;;25.80;99.90;;;;;;5133882;27;19933;-88
2022/09/07 14:04:40;;;;;;;;;;;24.90;99.90;;;;;;5134367;27;20381;-89
2022/09/07 14:07:06;;;;;;;;;;;25.00;99.90;;;;;;5132969;27;19931;-88
2022/09/07 14:09:32;;;;;;;;;;;25.20;99.90;;;;;;5118765;27;20297;-89
2022/09/07 14:11:58;;;;;;;;;;;25.20;99.90;;;;;;5119190;27;20370;-88
2022/09/07 14:14:28;;;;;;;;;;;25.20;99.90;;;;;;5118150;27;19934;-88
2022/09/07 14:16:53;;;;;;;;;;;25.00;99.90;;;;;;5119841;27;19931;-88
2022/09/07 14:19:23;;;;;;;;;;;24.70;99.90;;;;;;5135442;27;20286;-87
2022/09/07 14:21:52;;;;;;;;;;;24.60;99.90;;;;;;5118009;27;19974;-90
2022/09/07 14:24:27;;;;;;;;;;;25.00;99.90;;;;;;5135584;27;20371;-89
2022/09/07 14:26:53;;;;;;;;;;;25.00;99.90;;;;;;5135994;27;19968;-90
2022/09/07 14:29:23;;;;;;;;;;;25.00;99.90;;;;;;5118357;27;19930;-89
2022/09/07 14:31:49;;;;;;;;;;;25.00;99.90;;;;;;5118912;27;19923;-89